Time;durP1;ratioP1;P1;durP2;ratioP2;P2;SDS_P1;SDS_P2;PMS_P1;PMS_P2;Temp;Humidity;BMP_temperature;BMP_pressure;BME280_temperature;BME280_humidity;BME280_pressure;Samples;Min_cycle;Max_cycle;Signal;HPM_P1;HPM_P2
2021/01/18 00:00:57;;;;;;;45.50;16.92;;;;;;;1.42;100.00;101194.41;20988442;28;20044;-71
2021/01/18 00:10:58;;;;;;;40.67;16.42;;;;;;;1.42;100.00;101206.44;20988342;28;20098;-71
2021/01/18 00:20:59;;;;;;;36.85;16.35;;;;;;;1.43;100.00;101210.69;20987383;28;20055;-71
2021/01/18 00:31:02;;;;;;;34.35;15.10;;;;;;;1.39;100.00;101204.72;20993042;28;20040;-71
2021/01/18 00:41:03;;;;;;;37.55;16.70;;;;;;;1.39;100.00;101219.31;20986152;28;20049;-71
2021/01/18 00:51:04;;;;;;;44.33;15.98;;;;;;;1.40;100.00;101224.47;20986565;28;20136;-72
2021/01/18 01:01:05;;;;;;;43.80;17.13;;;;;;;1.44;100.00;101215.88;20985106;28;20052;-72
2021/01/18 01:11:07;;;;;;;41.90;15.35;;;;;;;1.40;100.00;101209.00;20986307;28;20045;-72
2021/01/18 01:21:08;;;;;;;32.42;14.50;;;;;;;1.32;100.00;101212.50;20985953;28;20072;-73
2021/01/18 01:31:09;;;;;;;49.08;16.38;;;;;;;1.27;100.00;101212.47;20993518;28;20055;-72
2021/01/18 01:41:10;;;;;;;41.28;17.38;;;;;;;1.29;100.00;101219.34;21000476;28;20051;-71
2021/01/18 01:51:11;;;;;;;49.90;18.25;;;;;;;1.29;100.00;101227.09;20999980;28;20416;-71
2021/01/18 02:01:13;;;;;;;42.78;16.65;;;;;;;1.23;100.00;101229.69;20999429;28;20067;-71
2021/01/18 02:11:14;;;;;;;38.20;16.02;;;;;;;1.20;100.00;101239.16;21000223;28;20048;-71
2021/01/18 02:21:41;;;;;;;29.73;14.10;;;;;;;1.35;100.00;101243.41;20998804;28;20045;-71
2021/01/18 02:31:51;;;;;;;30.20;12.77;;;;;;;1.40;100.00;101241.69;20996277;28;20056;-71
2021/01/18 02:41:58;;;;;;;37.08;14.15;;;;;;;1.47;100.00;101239.09;20995751;28;20044;-71
2021/01/18 02:52:04;;;;;;;37.67;14.02;;;;;;;1.47;100.00;101253.69;20995395;28;20045;-71
2021/01/18 03:02:13;;;;;;;31.67;13.73;;;;;;;1.45;100.00;101271.75;20993541;28;20057;-71
2021/01/18 03:12:20;;;;;;;31.67;15.00;;;;;;;1.37;100.00;101252.00;20993560;28;20090;-71
2021/01/18 03:22:23;;;;;;;35.30;13.93;;;;;;;1.41;100.00;101270.06;20992744;28;20110;-72
2021/01/18 03:32:26;;;;;;;30.83;14.27;;;;;;;1.46;100.00;101273.47;20991005;28;20055;-72
2021/01/18 03:42:27;;;;;;;27.48;12.77;;;;;;;1.48;100.00;101283.75;20990796;28;20053;-71
2021/01/18 03:52:28;;;;;;;31.23;12.10;;;;;;;1.48;100.00;101284.63;20990651;28;20052;-71
2021/01/18 04:02:29;;;;;;;28.30;12.82;;;;;;;1.52;100.00;101277.75;20988845;28;20055;-71
2021/01/18 04:12:30;;;;;;;24.63;11.13;;;;;;;1.47;100.00;101285.53;20988794;28;20102;-71
2021/01/18 04:22:30;;;;;;;31.75;11.73;;;;;;;1.45;100.00;101284.66;20988704;28;20052;-72
2021/01/18 04:32:31;;;;;;;30.77;13.52;;;;;;;1.46;100.00;101288.94;20986346;28;20476;-72
2021/01/18 04:42:32;;;;;;;38.45;12.48;;;;;;;1.39;100.00;101282.09;20986259;28;20504;-72
2021/01/18 04:52:48;;;;;;;29.83;12.07;;;;;;;1.25;100.00;101281.25;20986178;28;20102;-71
2021/01/18 05:02:52;;;;;;;26.77;11.18;;;;;;;1.21;100.00;101283.00;20984978;28;20274;-71
2021/01/18 05:12:56;;;;;;;27.37;11.13;;;;;;;1.15;100.00;101292.47;20985292;28;20554;-71
2021/01/18 05:22:57;;;;;;;26.00;10.63;;;;;;;1.04;100.00;101301.91;20984802;28;20078;-71
2021/01/18 05:33:03;;;;;;;26.17;10.48;;;;;;;0.99;100.00;101294.19;20983875;28;20287;-71
2021/01/18 05:43:04;;;;;;;24.60;9.95;;;;;;;1.11;100.00;101319.09;20984255;28;20524;-71
2021/01/18 05:53:26;;;;;;;28.40;10.45;;;;;;;1.26;100.00;101326.81;20983810;28;20048;-72
2021/01/18 06:03:33;;;;;;;25.83;10.23;;;;;;;1.35;100.00;101329.38;20982584;28;20048;-71
2021/01/18 06:13:34;;;;;;;27.77;10.13;;;;;;;1.33;100.00;101336.25;20985177;28;20055;-71
2021/01/18 06:23:35;;;;;;;34.28;11.10;;;;;;;1.39;100.00;101343.97;20997856;28;20041;-71
2021/01/18 06:33:49;;;;;;;25.25;9.98;;;;;;;1.46;100.00;101340.53;20996432;28;20052;-71
2021/01/18 06:43:50;;;;;;;24.63;10.05;;;;;;;1.47;100.00;101337.09;20998725;28;20107;-72
2021/01/18 06:53:53;;;;;;;23.90;10.15;;;;;;;1.51;100.00;101341.38;20996625;28;20055;-71
2021/01/18 07:03:59;;;;;;;24.67;10.40;;;;;;;1.59;100.00;101355.13;20985883;28;20119;-72
2021/01/18 07:14:11;;;;;;;24.83;11.48;;;;;;;1.54;100.00;101374.91;20994276;28;20052;-72
2021/01/18 07:24:15;;;;;;;29.50;11.32;;;;;;;1.59;100.00;101387.78;20975041;28;20048;-72
2021/01/18 07:34:29;;;;;;;24.77;11.52;;;;;;;1.54;100.00;101385.22;20992298;28;20096;-72
2021/01/18 07:44:44;;;;;;;25.65;11.05;;;;;;;1.73;100.00;101412.72;20992035;28;20055;-71
2021/01/18 07:54:47;;;;;;;27.02;10.85;;;;;;;1.72;100.00;101415.31;20991743;28;20509;-72
2021/01/18 08:04:48;;;;;;;28.70;11.88;;;;;;;1.85;100.00;101410.97;20990106;28;20048;-71
2021/01/18 08:14:49;;;;;;;34.28;13.32;;;;;;;1.89;100.00;101408.38;20989174;28;20766;-71
2021/01/18 08:24:53;;;;;;;32.33;11.93;;;;;;;1.90;100.00;101409.22;20989453;28;20131;-71
2021/01/18 08:34:56;;;;;;;30.67;12.40;;;;;;;1.93;100.00;101406.66;20987919;28;20052;-71
2021/01/18 08:45:02;;;;;;;25.65;11.38;;;;;;;1.98;100.00;101421.25;20988085;28;20049;-71
2021/01/18 08:55:29;;;;;;;31.80;15.63;;;;;;;2.26;100.00;101424.59;20986796;28;20098;-71
2021/01/18 09:05:30;;;;;;;29.83;14.30;;;;;;;2.30;100.00;101426.31;20986070;28;20500;-71
2021/01/18 09:15:33;;;;;;;26.98;12.65;;;;;;;2.40;100.00;101428.00;20985949;28;20040;-71
2021/01/18 09:25:35;;;;;;;26.27;12.13;;;;;;;2.76;100.00;101419.19;21063884;28;20492;-71
2021/01/18 09:35:42;;;;;;;24.52;11.38;;;;;;;2.80;100.00;101420.00;21031048;28;20463;-70
2021/01/18 09:45:43;;;;;;;23.50;11.20;;;;;;;2.91;99.75;101410.47;20985326;28;20492;-71
2021/01/18 09:55:49;;;;;;;21.83;10.02;;;;;;;2.74;100.00;101420.09;20998118;28;20079;-71
2021/01/18 10:05:52;;;;;;;27.45;11.38;;;;;;;2.83;99.38;101417.44;20999333;28;20056;-70
2021/01/18 10:15:54;;;;;;;19.27;10.13;;;;;;;2.94;98.23;101420.81;20981831;28;20041;-70
2021/01/18 10:25:55;;;;;;;20.25;10.45;;;;;;;2.97;97.46;101415.59;20998426;28;20127;-70
2021/01/18 10:35:56;;;;;;;20.13;9.57;;;;;;;3.08;97.11;101418.97;20997550;28;20500;-70
2021/01/18 10:45:58;;;;;;;19.27;10.00;;;;;;;3.24;95.98;101417.13;20996306;28;20049;-70
2021/01/18 10:56:14;;;;;;;20.63;9.13;;;;;;;3.36;95.61;101399.75;20988205;28;20067;-70
2021/01/18 11:06:17;;;;;;;18.02;8.60;;;;;;;3.61;94.84;101391.78;20994070;28;20496;-70
2021/01/18 11:16:18;;;;;;;18.17;8.63;;;;;;;3.70;94.10;101383.94;20994196;28;20579;-71
2021/01/18 11:26:20;;;;;;;15.00;7.68;;;;;;;3.84;92.98;101379.47;20996906;28;20097;-70
2021/01/18 11:36:25;;;;;;;18.23;7.75;;;;;;;4.00;92.68;101368.06;20994222;28;20052;-70
2021/01/18 11:46:26;;;;;;;16.50;7.30;;;;;;;4.07;91.90;101369.69;20992432;28;20052;-70
2021/01/18 11:56:31;;;;;;;15.82;6.70;;;;;;;4.07;90.01;101359.31;20991625;28;20055;-69
2021/01/18 12:06:34;;;;;;;13.35;5.47;;;;;;;3.94;90.12;101351.72;20990440;28;20508;-70
2021/01/18 12:16:35;;;;;;;12.27;5.78;;;;;;;4.07;90.76;101338.59;20988803;28;20052;-69
2021/01/18 12:26:36;;;;;;;14.60;5.20;;;;;;;4.26;88.64;101329.72;20983178;28;20130;-71
2021/01/18 12:36:38;;;;;;;15.00;4.75;;;;;;;4.49;86.24;101337.16;20987405;28;20044;-71
2021/01/18 12:46:39;;;;;;;12.50;5.90;;;;;;;4.79;85.87;101304.72;20985013;28;20056;-72
2021/01/18 12:56:40;;;;;;;11.15;5.40;;;;;;;4.33;86.08;101291.59;20987891;28;20052;-71
2021/01/18 13:06:43;;;;;;;10.35;4.97;;;;;;;4.09;86.83;101292.81;20986150;28;20136;-71
2021/01/18 13:16:44;;;;;;;13.18;5.18;;;;;;;4.20;85.67;101270.22;20968347;28;20060;-71
2021/01/18 13:26:45;;;;;;;16.20;5.32;;;;;;;3.96;86.16;101262.78;20995536;28;20139;-68
2021/01/18 13:36:46;;;;;;;15.50;5.95;;;;;;;3.92;87.73;101263.69;21002914;28;20066;-70
2021/01/18 13:46:47;;;;;;;10.52;5.38;;;;;;;3.58;89.12;101242.56;21003887;28;20126;-70
2021/01/18 13:56:59;;;;;;;14.65;6.88;;;;;;;3.45;89.18;101241.00;21002344;28;20067;-69
2021/01/18 14:07:00;;;;;;;16.17;6.10;;;;;;;3.38;89.57;101237.63;20997932;28;20496;-70
2021/01/18 14:17:02;;;;;;;15.43;6.60;;;;;;;3.49;91.07;101228.88;20997607;28;20416;-70
2021/01/18 14:27:04;;;;;;;16.70;7.90;;;;;;;3.56;89.52;101228.75;20998014;28;20036;-70
2021/01/18 14:37:04;;;;;;;16.80;8.27;;;;;;;3.60;89.42;101225.28;20997051;28;20040;-69
2021/01/18 14:47:08;;;;;;;19.10;8.93;;;;;;;3.50;90.06;101207.28;20997367;28;20118;-69
2021/01/18 14:57:10;;;;;;;19.00;9.37;;;;;;;3.32;90.99;101218.69;20996449;28;20132;-71
2021/01/18 15:07:12;;;;;;;22.38;10.27;;;;;;;3.35;91.72;101216.94;20994338;28;20045;-69
2021/01/18 15:17:13;;;;;;;21.67;10.25;;;;;;;3.31;92.26;101204.91;20994334;28;20436;-69
2021/01/18 15:27:14;;;;;;;18.73;9.95;;;;;;;3.13;92.58;101215.47;20992938;28;20557;-69
2021/01/18 15:37:15;;;;;;;19.23;10.10;;;;;;;3.08;92.38;101218.97;20992238;28;20040;-70
2021/01/18 15:47:16;;;;;;;18.83;9.80;;;;;;;2.94;94.22;101220.00;20990973;28;20079;-69
2021/01/18 15:57:17;;;;;;;26.92;13.15;;;;;;;2.81;94.55;101217.53;20991487;28;20052;-70
2021/01/18 16:07:18;;;;;;;20.45;10.05;;;;;;;2.66;95.64;101236.63;20989637;28;20048;-70
2021/01/18 16:17:22;;;;;;;20.20;10.02;;;;;;;2.61;96.66;101255.59;20988619;28;20135;-70
2021/01/18 16:27:23;;;;;;;21.73;10.53;;;;;;;2.73;95.13;101260.69;20987225;28;20076;-70
2021/01/18 16:37:28;;;;;;;19.23;10.05;;;;;;;2.73;93.93;101255.50;20988370;28;20043;-70
2021/01/18 16:47:28;;;;;;;16.42;8.32;;;;;;;2.71;92.77;101244.31;20987507;28;20122;-69
2021/01/18 16:57:31;;;;;;;17.60;8.50;;;;;;;2.47;93.78;101254.00;20986715;28;20052;-69
2021/01/18 17:07:32;;;;;;;19.45;9.48;;;;;;;2.26;94.75;101261.91;20986024;28;20045;-71
2021/01/18 17:17:34;;;;;;;20.88;10.45;;;;;;;2.32;94.05;101264.44;20967327;28;20072;-70
2021/01/18 17:27:36;;;;;;;17.13;9.07;;;;;;;2.43;91.20;101279.88;20992805;28;20527;-71
2021/01/18 17:37:42;;;;;;;14.85;7.03;;;;;;;2.51;89.46;101281.53;21068197;28;20044;-70
2021/01/18 17:47:45;;;;;;;11.43;6.10;;;;;;;2.61;88.73;101271.09;21068005;28;20515;-70
2021/01/18 17:57:46;;;;;;;12.65;5.93;;;;;;;2.73;88.06;101283.94;21069819;28;20497;-69
2021/01/18 18:07:47;;;;;;;12.93;6.55;;;;;;;2.68;88.07;101283.13;21067501;28;20569;-69
2021/01/18 18:17:48;;;;;;;17.08;7.65;;;;;;;2.71;87.70;101293.44;20999854;28;20052;-71
2021/01/18 18:27:49;;;;;;;16.92;8.35;;;;;;;2.63;88.26;101287.47;20997377;28;20663;-71
2021/01/18 18:37:55;;;;;;;21.80;8.63;;;;;;;2.85;86.78;101276.06;20996664;28;20583;-70
2021/01/18 18:47:56;;;;;;;18.95;8.57;;;;;;;2.80;87.35;101272.66;20996655;28;20044;-70
2021/01/18 18:57:57;;;;;;;13.95;6.82;;;;;;;2.65;88.26;101262.47;20995542;28;20051;-70
2021/01/18 19:07:58;;;;;;;20.83;10.70;;;;;;;2.67;87.51;101253.84;20994691;28;20052;-71
2021/01/18 19:17:59;;;;;;;19.48;8.90;;;;;;;2.59;87.89;101258.22;20994369;28;20045;-70
2021/01/18 19:28:00;;;;;;;14.20;7.82;;;;;;;2.55;88.22;101247.03;20994033;28;20131;-70
2021/01/18 19:38:01;;;;;;;17.33;8.18;;;;;;;2.44;89.43;101254.00;20992463;28;20079;-69
2021/01/18 19:48:03;;;;;;;14.38;7.90;;;;;;;2.37;88.76;101236.84;20992803;28;20435;-69
2021/01/18 19:58:03;;;;;;;17.90;8.20;;;;;;;2.13;90.33;101232.69;20991025;28;20562;-69
2021/01/18 20:08:04;;;;;;;14.90;7.60;;;;;;;2.03;90.57;101232.78;20990483;28;20626;-69
2021/01/18 20:18:05;;;;;;;14.38;7.10;;;;;;;2.00;90.36;101230.22;20990078;28;20483;-69
2021/01/18 20:28:07;;;;;;;15.15;7.10;;;;;;;1.78;91.83;101218.31;20988940;28;20562;-69
2021/01/18 20:38:08;;;;;;;14.80;7.07;;;;;;;1.80;91.17;101212.25;20986724;28;20101;-70
2021/01/18 20:48:09;;;;;;;15.65;7.18;;;;;;;1.74;91.54;101212.28;20987697;28;20048;-69
2021/01/18 20:58:11;;;;;;;14.48;6.18;;;;;;;1.82;90.34;101214.84;20987290;28;20132;-69
2021/01/18 21:08:13;;;;;;;12.38;6.40;;;;;;;1.84;90.50;101197.59;20986576;28;20048;-69
2021/01/18 21:18:14;;;;;;;16.55;7.60;;;;;;;1.83;90.33;101207.06;20986269;28;20045;-69
2021/01/18 21:28:15;;;;;;;14.80;7.05;;;;;;;1.96;90.03;101207.88;20986132;28;20040;-70
2021/01/18 21:38:16;;;;;;;14.35;6.60;;;;;;;2.12;88.46;101212.06;20984914;28;20103;-70
2021/01/18 21:48:17;;;;;;;13.63;6.82;;;;;;;2.06;88.43;101199.19;20994678;28;20053;-69
2021/01/18 21:58:17;;;;;;;14.15;7.28;;;;;;;2.13;87.66;101193.13;21001560;28;20131;-70
2021/01/18 22:08:18;;;;;;;13.27;5.82;;;;;;;2.13;87.65;101185.38;21001456;28;20056;-71
2021/01/18 22:18:19;;;;;;;14.60;6.18;;;;;;;2.03;88.35;101194.88;21000954;28;20044;-72
2021/01/18 22:28:20;;;;;;;12.32;6.18;;;;;;;2.04;87.37;101185.41;20998941;28;20664;-71
2021/01/18 22:38:21;;;;;;;13.20;6.70;;;;;;;2.10;87.31;101187.97;20996420;28;20384;-71
2021/01/18 22:48:22;;;;;;;15.98;6.85;;;;;;;2.03;88.72;101181.16;20997533;28;20048;-70
2021/01/18 22:58:23;;;;;;;21.08;6.85;;;;;;;2.04;88.51;101180.25;20996518;28;20044;-70
2021/01/18 23:08:24;;;;;;;18.83;7.25;;;;;;;2.02;88.44;101182.88;20955727;28;20091;-70
2021/01/18 23:18:25;;;;;;;14.32;7.38;;;;;;;2.03;88.49;101170.81;20990609;28;20049;-69
2021/01/18 23:28:26;;;;;;;16.88;8.43;;;;;;;2.05;88.18;101156.16;20989991;28;20586;-70
2021/01/18 23:38:27;;;;;;;14.77;6.75;;;;;;;2.09;87.39;101132.88;20992284;28;20048;-70
2021/01/18 23:48:28;;;;;;;16.25;7.47;;;;;;;2.10;87.89;101123.41;20991707;28;20163;-70
2021/01/18 23:58:29;;;;;;;13.13;7.13;;;;;;;2.06;88.20;101116.56;20990779;28;20051;-70
